sensor_id;sensor_type;location;lat;lon;timestamp;temperature;humidity
28171;DHT22;15458;53.346;-1.688;2023-04-24T00:00:04;6.50;99.90
28171;DHT22;15458;53.346;-1.688;2023-04-24T00:02:38;6.50;99.90
28171;DHT22;15458;53.346;-1.688;2023-04-24T00:05:06;6.50;99.90
28171;DHT22;15458;53.346;-1.688;2023-04-24T00:07:32;6.50;99.90
28171;DHT22;15458;53.346;-1.688;2023-04-24T00:09:58;6.50;99.90
28171;DHT22;15458;53.346;-1.688;2023-04-24T00:12:24;6.40;99.90
28171;DHT22;15458;53.346;-1.688;2023-04-24T00:14:50;6.40;99.90
28171;DHT22;15458;53.346;-1.688;2023-04-24T00:17:16;6.40;99.90
28171;DHT22;15458;53.346;-1.688;2023-04-24T00:19:45;6.40;99.90
28171;DHT22;15458;53.346;-1.688;2023-04-24T00:22:11;6.30;99.90
28171;DHT22;15458;53.346;-1.688;2023-04-24T00:24:39;6.30;99.90
28171;DHT22;15458;53.346;-1.688;2023-04-24T00:27:04;6.30;99.90
28171;DHT22;15458;53.346;-1.688;2023-04-24T00:29:31;6.20;99.90
28171;DHT22;15458;53.346;-1.688;2023-04-24T00:31:57;6.20;99.90
28171;DHT22;15458;53.346;-1.688;2023-04-24T00:34:23;6.10;99.90
28171;DHT22;15458;53.346;-1.688;2023-04-24T00:36:49;6.10;99.90
28171;DHT22;15458;53.346;-1.688;2023-04-24T00:39:21;6.00;99.90
28171;DHT22;15458;53.346;-1.688;2023-04-24T00:41:47;6.00;99.90
28171;DHT22;15458;53.346;-1.688;2023-04-24T00:44:14;6.00;99.90
28171;DHT22;15458;53.346;-1.688;2023-04-24T00:46:40;5.90;99.90
28171;DHT22;15458;53.346;-1.688;2023-04-24T00:49:05;5.80;99.90
28171;DHT22;15458;53.346;-1.688;2023-04-24T00:51:32;5.80;99.90
28171;DHT22;15458;53.346;-1.688;2023-04-24T00:53:58;5.70;99.90
28171;DHT22;15458;53.346;-1.688;2023-04-24T00:56:24;5.70;99.90
28171;DHT22;15458;53.346;-1.688;2023-04-24T00:58:50;5.70;99.90
28171;DHT22;15458;53.346;-1.688;2023-04-24T01:01:18;5.60;99.90
28171;DHT22;15458;53.346;-1.688;2023-04-24T01:03:46;5.60;99.90
28171;DHT22;15458;53.346;-1.688;2023-04-24T01:06:13;5.50;99.90
28171;DHT22;15458;53.346;-1.688;2023-04-24T01:08:39;5.50;99.90
28171;DHT22;15458;53.346;-1.688;2023-04-24T01:11:06;5.50;99.90
28171;DHT22;15458;53.346;-1.688;2023-04-24T01:13:33;5.40;99.90
28171;DHT22;15458;53.346;-1.688;2023-04-24T01:15:59;5.40;99.90
28171;DHT22;15458;53.346;-1.688;2023-04-24T01:18:26;5.40;99.90
28171;DHT22;15458;53.346;-1.688;2023-04-24T01:20:53;5.30;99.90
28171;DHT22;15458;53.346;-1.688;2023-04-24T01:23:21;5.30;99.90
28171;DHT22;15458;53.346;-1.688;2023-04-24T01:25:46;5.30;99.90
28171;DHT22;15458;53.346;-1.688;2023-04-24T01:28:13;5.20;99.90
28171;DHT22;15458;53.346;-1.688;2023-04-24T01:30:39;5.20;99.90
28171;DHT22;15458;53.346;-1.688;2023-04-24T01:33:05;5.10;99.90
28171;DHT22;15458;53.346;-1.688;2023-04-24T01:35:31;5.10;99.90
28171;DHT22;15458;53.346;-1.688;2023-04-24T01:37:57;5.10;99.90
28171;DHT22;15458;53.346;-1.688;2023-04-24T01:40:23;5.10;99.90
28171;DHT22;15458;53.346;-1.688;2023-04-24T01:42:48;5.00;99.90
28171;DHT22;15458;53.346;-1.688;2023-04-24T01:45:14;5.00;99.90
28171;DHT22;15458;53.346;-1.688;2023-04-24T01:47:40;5.00;99.90
28171;DHT22;15458;53.346;-1.688;2023-04-24T01:50:06;5.00;99.90
28171;DHT22;15458;53.346;-1.688;2023-04-24T01:52:32;5.00;99.90
28171;DHT22;15458;53.346;-1.688;2023-04-24T01:55:04;4.90;99.90
28171;DHT22;15458;53.346;-1.688;2023-04-24T01:57:31;4.90;99.90
28171;DHT22;15458;53.346;-1.688;2023-04-24T01:59:57;4.90;99.90
28171;DHT22;15458;53.346;-1.688;2023-04-24T02:02:23;4.90;99.90
28171;DHT22;15458;53.346;-1.688;2023-04-24T02:04:55;4.90;99.90
28171;DHT22;15458;53.346;-1.688;2023-04-24T02:07:21;4.90;99.90
28171;DHT22;15458;53.346;-1.688;2023-04-24T02:09:47;4.80;99.90
28171;DHT22;15458;53.346;-1.688;2023-04-24T02:12:13;4.80;99.90
28171;DHT22;15458;53.346;-1.688;2023-04-24T02:14:39;4.80;99.90
28171;DHT22;15458;53.346;-1.688;2023-04-24T02:17:05;4.80;99.90
28171;DHT22;15458;53.346;-1.688;2023-04-24T02:19:30;4.80;99.90
28171;DHT22;15458;53.346;-1.688;2023-04-24T02:21:56;4.80;99.90
28171;DHT22;15458;53.346;-1.688;2023-04-24T02:24:22;4.80;99.90
28171;DHT22;15458;53.346;-1.688;2023-04-24T02:26:49;4.80;99.90
28171;DHT22;15458;53.346;-1.688;2023-04-24T02:29:14;4.80;99.90
28171;DHT22;15458;53.346;-1.688;2023-04-24T02:31:40;4.80;99.90
28171;DHT22;15458;53.346;-1.688;2023-04-24T02:34:06;4.80;99.90
28171;DHT22;15458;53.346;-1.688;2023-04-24T02:36:32;4.70;99.90
28171;DHT22;15458;53.346;-1.688;2023-04-24T02:38:57;4.70;99.90
28171;DHT22;15458;53.346;-1.688;2023-04-24T02:41:23;4.80;99.90
28171;DHT22;15458;53.346;-1.688;2023-04-24T02:43:49;4.80;99.90
28171;DHT22;15458;53.346;-1.688;2023-04-24T02:46:15;4.80;99.90
28171;DHT22;15458;53.346;-1.688;2023-04-24T02:48:40;4.80;99.90
28171;DHT22;15458;53.346;-1.688;2023-04-24T02:51:06;4.80;99.90
28171;DHT22;15458;53.346;-1.688;2023-04-24T02:53:32;4.70;99.90
28171;DHT22;15458;53.346;-1.688;2023-04-24T02:55:58;4.70;99.90
28171;DHT22;15458;53.346;-1.688;2023-04-24T02:58:23;4.70;99.90
28171;DHT22;15458;53.346;-1.688;2023-04-24T03:00:53;4.70;99.90
28171;DHT22;15458;53.346;-1.688;2023-04-24T03:03:20;4.70;99.90
28171;DHT22;15458;53.346;-1.688;2023-04-24T03:05:46;4.60;99.90
28171;DHT22;15458;53.346;-1.688;2023-04-24T03:08:12;4.60;99.90
28171;DHT22;15458;53.346;-1.688;2023-04-24T03:10:40;4.70;99.90
28171;DHT22;15458;53.346;-1.688;2023-04-24T03:13:05;4.70;99.90
28171;DHT22;15458;53.346;-1.688;2023-04-24T03:15:31;4.70;99.90
28171;DHT22;15458;53.346;-1.688;2023-04-24T03:17:57;4.70;99.90
28171;DHT22;15458;53.346;-1.688;2023-04-24T03:20:23;4.70;99.90
28171;DHT22;15458;53.346;-1.688;2023-04-24T03:22:48;4.70;99.90
28171;DHT22;15458;53.346;-1.688;2023-04-24T03:25:14;4.70;99.90
28171;DHT22;15458;53.346;-1.688;2023-04-24T03:27:40;4.80;99.90
28171;DHT22;15458;53.346;-1.688;2023-04-24T03:30:07;4.80;99.90
28171;DHT22;15458;53.346;-1.688;2023-04-24T03:32:33;4.80;99.90
28171;DHT22;15458;53.346;-1.688;2023-04-24T03:34:58;4.90;99.90
28171;DHT22;15458;53.346;-1.688;2023-04-24T03:37:24;4.90;99.90
28171;DHT22;15458;53.346;-1.688;2023-04-24T03:39:50;4.90;99.90
28171;DHT22;15458;53.346;-1.688;2023-04-24T03:42:15;4.90;99.90
28171;DHT22;15458;53.346;-1.688;2023-04-24T03:44:41;4.90;99.90
28171;DHT22;15458;53.346;-1.688;2023-04-24T03:47:06;5.00;99.90
28171;DHT22;15458;53.346;-1.688;2023-04-24T03:49:32;5.00;99.90
28171;DHT22;15458;53.346;-1.688;2023-04-24T03:51:58;5.00;99.90
28171;DHT22;15458;53.346;-1.688;2023-04-24T03:54:23;5.00;99.90
28171;DHT22;15458;53.346;-1.688;2023-04-24T03:56:49;5.00;99.90
28171;DHT22;15458;53.346;-1.688;2023-04-24T03:59:15;5.10;99.90
28171;DHT22;15458;53.346;-1.688;2023-04-24T04:01:40;5.10;99.90
28171;DHT22;15458;53.346;-1.688;2023-04-24T04:04:06;5.10;99.90
28171;DHT22;15458;53.346;-1.688;2023-04-24T04:06:33;5.00;99.90
28171;DHT22;15458;53.346;-1.688;2023-04-24T04:08:59;5.00;99.90
28171;DHT22;15458;53.346;-1.688;2023-04-24T04:11:25;5.00;99.90
28171;DHT22;15458;53.346;-1.688;2023-04-24T04:13:51;4.90;99.90
28171;DHT22;15458;53.346;-1.688;2023-04-24T04:16:16;4.90;99.90
28171;DHT22;15458;53.346;-1.688;2023-04-24T04:18:43;4.90;99.90
28171;DHT22;15458;53.346;-1.688;2023-04-24T04:21:09;4.80;99.90
28171;DHT22;15458;53.346;-1.688;2023-04-24T04:23:35;4.80;99.90
28171;DHT22;15458;53.346;-1.688;2023-04-24T04:26:01;4.80;99.90
28171;DHT22;15458;53.346;-1.688;2023-04-24T04:28:27;4.80;99.90
28171;DHT22;15458;53.346;-1.688;2023-04-24T04:30:53;4.80;99.90
28171;DHT22;15458;53.346;-1.688;2023-04-24T04:33:23;4.80;99.90
28171;DHT22;15458;53.346;-1.688;2023-04-24T04:35:49;4.80;99.90
28171;DHT22;15458;53.346;-1.688;2023-04-24T04:38:15;4.80;99.90
28171;DHT22;15458;53.346;-1.688;2023-04-24T04:40:42;4.80;99.90
28171;DHT22;15458;53.346;-1.688;2023-04-24T04:43:08;4.80;99.90
28171;DHT22;15458;53.346;-1.688;2023-04-24T04:45:35;4.80;99.90
28171;DHT22;15458;53.346;-1.688;2023-04-24T04:48:02;4.80;99.90
28171;DHT22;15458;53.346;-1.688;2023-04-24T04:50:28;4.80;99.90
28171;DHT22;15458;53.346;-1.688;2023-04-24T04:52:54;4.80;99.90
28171;DHT22;15458;53.346;-1.688;2023-04-24T04:55:20;4.80;99.90
28171;DHT22;15458;53.346;-1.688;2023-04-24T04:57:46;4.80;99.90
28171;DHT22;15458;53.346;-1.688;2023-04-24T05:00:12;4.80;99.90
28171;DHT22;15458;53.346;-1.688;2023-04-24T05:02:38;4.80;99.90
28171;DHT22;15458;53.346;-1.688;2023-04-24T05:05:05;4.80;99.90
28171;DHT22;15458;53.346;-1.688;2023-04-24T05:07:31;4.80;99.90
28171;DHT22;15458;53.346;-1.688;2023-04-24T05:09:57;4.80;99.90
28171;DHT22;15458;53.346;-1.688;2023-04-24T05:12:23;4.80;99.90
28171;DHT22;15458;53.346;-1.688;2023-04-24T05:14:48;4.80;99.90
28171;DHT22;15458;53.346;-1.688;2023-04-24T05:17:15;4.80;99.90
28171;DHT22;15458;53.346;-1.688;2023-04-24T05:19:40;4.80;99.90
28171;DHT22;15458;53.346;-1.688;2023-04-24T05:22:06;4.80;99.90
28171;DHT22;15458;53.346;-1.688;2023-04-24T05:24:36;4.80;99.90
28171;DHT22;15458;53.346;-1.688;2023-04-24T05:27:06;4.80;99.90
28171;DHT22;15458;53.346;-1.688;2023-04-24T05:29:31;4.80;99.90
28171;DHT22;15458;53.346;-1.688;2023-04-24T05:31:58;4.80;99.90
28171;DHT22;15458;53.346;-1.688;2023-04-24T05:34:24;4.80;99.90
28171;DHT22;15458;53.346;-1.688;2023-04-24T05:36:50;4.80;99.90
28171;DHT22;15458;53.346;-1.688;2023-04-24T05:39:16;4.80;99.90
28171;DHT22;15458;53.346;-1.688;2023-04-24T05:41:42;4.80;99.90
28171;DHT22;15458;53.346;-1.688;2023-04-24T05:44:07;4.90;99.90
28171;DHT22;15458;53.346;-1.688;2023-04-24T05:46:33;4.90;99.90
28171;DHT22;15458;53.346;-1.688;2023-04-24T05:48:59;4.90;99.90
28171;DHT22;15458;53.346;-1.688;2023-04-24T05:51:25;5.00;99.90
28171;DHT22;15458;53.346;-1.688;2023-04-24T05:53:51;5.00;99.90
28171;DHT22;15458;53.346;-1.688;2023-04-24T05:56:17;5.00;99.90
28171;DHT22;15458;53.346;-1.688;2023-04-24T05:58:43;5.00;99.90
28171;DHT22;15458;53.346;-1.688;2023-04-24T06:01:12;5.10;99.90
28171;DHT22;15458;53.346;-1.688;2023-04-24T06:03:38;5.10;99.90
28171;DHT22;15458;53.346;-1.688;2023-04-24T06:06:06;5.20;99.90
28171;DHT22;15458;53.346;-1.688;2023-04-24T06:08:32;5.20;99.90
28171;DHT22;15458;53.346;-1.688;2023-04-24T06:11:03;5.20;99.90
28171;DHT22;15458;53.346;-1.688;2023-04-24T06:13:29;5.20;99.90
28171;DHT22;15458;53.346;-1.688;2023-04-24T06:15:55;5.30;99.90
28171;DHT22;15458;53.346;-1.688;2023-04-24T06:18:21;5.30;99.90
28171;DHT22;15458;53.346;-1.688;2023-04-24T06:20:48;5.30;99.90
28171;DHT22;15458;53.346;-1.688;2023-04-24T06:43:02;5.60;99.90
28171;DHT22;15458;53.346;-1.688;2023-04-24T06:45:29;5.60;99.90
28171;DHT22;15458;53.346;-1.688;2023-04-24T06:53:54;5.60;99.90
28171;DHT22;15458;53.346;-1.688;2023-04-24T06:56:21;5.60;99.90
28171;DHT22;15458;53.346;-1.688;2023-04-24T06:58:49;5.60;99.90
28171;DHT22;15458;53.346;-1.688;2023-04-24T07:01:14;5.60;99.90
28171;DHT22;15458;53.346;-1.688;2023-04-24T07:03:40;5.70;99.90
28171;DHT22;15458;53.346;-1.688;2023-04-24T07:06:06;5.70;99.90
28171;DHT22;15458;53.346;-1.688;2023-04-24T07:08:32;5.80;99.90
28171;DHT22;15458;53.346;-1.688;2023-04-24T07:10:59;5.90;99.90
28171;DHT22;15458;53.346;-1.688;2023-04-24T07:13:25;6.00;99.90
28171;DHT22;15458;53.346;-1.688;2023-04-24T07:15:51;6.00;99.90
28171;DHT22;15458;53.346;-1.688;2023-04-24T07:18:20;6.10;99.90
28171;DHT22;15458;53.346;-1.688;2023-04-24T07:20:46;6.10;99.90
28171;DHT22;15458;53.346;-1.688;2023-04-24T07:23:12;6.20;99.90
28171;DHT22;15458;53.346;-1.688;2023-04-24T07:25:37;6.30;99.90
28171;DHT22;15458;53.346;-1.688;2023-04-24T07:28:03;6.30;99.90
28171;DHT22;15458;53.346;-1.688;2023-04-24T07:30:30;6.20;99.90
28171;DHT22;15458;53.346;-1.688;2023-04-24T07:32:58;6.30;99.90
28171;DHT22;15458;53.346;-1.688;2023-04-24T07:35:24;6.30;99.90
28171;DHT22;15458;53.346;-1.688;2023-04-24T07:37:52;6.30;99.90
28171;DHT22;15458;53.346;-1.688;2023-04-24T07:40:18;6.40;99.90
28171;DHT22;15458;53.346;-1.688;2023-04-24T07:42:44;6.50;99.90
28171;DHT22;15458;53.346;-1.688;2023-04-24T07:45:09;6.50;99.90
28171;DHT22;15458;53.346;-1.688;2023-04-24T07:47:35;6.60;99.90
28171;DHT22;15458;53.346;-1.688;2023-04-24T07:50:02;6.70;99.90
28171;DHT22;15458;53.346;-1.688;2023-04-24T07:52:28;6.70;99.90
28171;DHT22;15458;53.346;-1.688;2023-04-24T07:54:54;6.80;99.90
28171;DHT22;15458;53.346;-1.688;2023-04-24T07:57:24;6.90;99.90
28171;DHT22;15458;53.346;-1.688;2023-04-24T07:59:50;7.00;99.90
28171;DHT22;15458;53.346;-1.688;2023-04-24T08:02:16;7.00;99.90
28171;DHT22;15458;53.346;-1.688;2023-04-24T08:04:41;7.10;99.90
28171;DHT22;15458;53.346;-1.688;2023-04-24T08:07:08;7.20;99.90
28171;DHT22;15458;53.346;-1.688;2023-04-24T08:09:36;7.30;99.90
28171;DHT22;15458;53.346;-1.688;2023-04-24T08:12:02;7.40;99.90
28171;DHT22;15458;53.346;-1.688;2023-04-24T08:14:27;7.60;99.90
28171;DHT22;15458;53.346;-1.688;2023-04-24T08:16:54;7.70;99.90
28171;DHT22;15458;53.346;-1.688;2023-04-24T08:19:21;7.80;99.90
28171;DHT22;15458;53.346;-1.688;2023-04-24T08:21:47;8.00;99.90
28171;DHT22;15458;53.346;-1.688;2023-04-24T08:24:13;8.10;99.90
28171;DHT22;15458;53.346;-1.688;2023-04-24T08:26:39;8.20;99.90
28171;DHT22;15458;53.346;-1.688;2023-04-24T08:29:05;8.20;99.90
28171;DHT22;15458;53.346;-1.688;2023-04-24T08:31:32;8.30;99.90
28171;DHT22;15458;53.346;-1.688;2023-04-24T08:33:57;8.30;99.90
28171;DHT22;15458;53.346;-1.688;2023-04-24T08:36:24;8.20;99.90
28171;DHT22;15458;53.346;-1.688;2023-04-24T08:38:49;8.20;99.90
28171;DHT22;15458;53.346;-1.688;2023-04-24T08:41:15;8.40;99.90
28171;DHT22;15458;53.346;-1.688;2023-04-24T08:43:43;8.40;99.90
28171;DHT22;15458;53.346;-1.688;2023-04-24T08:46:13;8.50;99.90
28171;DHT22;15458;53.346;-1.688;2023-04-24T08:48:39;8.60;99.90
28171;DHT22;15458;53.346;-1.688;2023-04-24T08:51:07;8.80;99.90
28171;DHT22;15458;53.346;-1.688;2023-04-24T08:53:33;8.80;99.90
28171;DHT22;15458;53.346;-1.688;2023-04-24T08:56:01;8.90;99.90
28171;DHT22;15458;53.346;-1.688;2023-04-24T08:58:27;8.80;99.90
28171;DHT22;15458;53.346;-1.688;2023-04-24T09:00:57;8.80;99.90
28171;DHT22;15458;53.346;-1.688;2023-04-24T09:03:24;8.80;99.90
28171;DHT22;15458;53.346;-1.688;2023-04-24T09:05:50;8.80;99.90
28171;DHT22;15458;53.346;-1.688;2023-04-24T09:08:19;8.90;99.90
28171;DHT22;15458;53.346;-1.688;2023-04-24T09:10:45;9.00;99.90
28171;DHT22;15458;53.346;-1.688;2023-04-24T09:13:11;9.00;99.90
28171;DHT22;15458;53.346;-1.688;2023-04-24T09:15:38;9.00;99.90
28171;DHT22;15458;53.346;-1.688;2023-04-24T09:18:04;9.10;99.90
28171;DHT22;15458;53.346;-1.688;2023-04-24T09:20:31;9.10;99.90
28171;DHT22;15458;53.346;-1.688;2023-04-24T09:22:57;9.20;99.90
28171;DHT22;15458;53.346;-1.688;2023-04-24T09:25:33;9.30;99.90
28171;DHT22;15458;53.346;-1.688;2023-04-24T09:28:02;9.30;99.40
28171;DHT22;15458;53.346;-1.688;2023-04-24T09:30:29;9.40;98.90
28171;DHT22;15458;53.346;-1.688;2023-04-24T09:33:14;9.40;98.50
28171;DHT22;15458;53.346;-1.688;2023-04-24T09:35:50;9.30;98.20
28171;DHT22;15458;53.346;-1.688;2023-04-24T09:38:17;9.30;97.90
28171;DHT22;15458;53.346;-1.688;2023-04-24T09:40:43;9.30;98.00
28171;DHT22;15458;53.346;-1.688;2023-04-24T09:43:11;9.50;97.80
28171;DHT22;15458;53.346;-1.688;2023-04-24T09:45:39;9.70;97.50
28171;DHT22;15458;53.346;-1.688;2023-04-24T09:48:08;10.00;96.80
28171;DHT22;15458;53.346;-1.688;2023-04-24T09:50:34;10.20;96.50
28171;DHT22;15458;53.346;-1.688;2023-04-24T09:53:05;10.60;96.20
28171;DHT22;15458;53.346;-1.688;2023-04-24T09:55:31;11.00;95.00
28171;DHT22;15458;53.346;-1.688;2023-04-24T09:57:58;11.10;94.00
28171;DHT22;15458;53.346;-1.688;2023-04-24T10:00:30;11.20;92.90
28171;DHT22;15458;53.346;-1.688;2023-04-24T10:02:57;11.40;92.10
28171;DHT22;15458;53.346;-1.688;2023-04-24T10:05:24;11.50;91.80
28171;DHT22;15458;53.346;-1.688;2023-04-24T10:07:51;11.60;91.50
28171;DHT22;15458;53.346;-1.688;2023-04-24T10:10:16;11.50;91.20
28171;DHT22;15458;53.346;-1.688;2023-04-24T10:12:43;11.50;90.80
28171;DHT22;15458;53.346;-1.688;2023-04-24T10:15:10;11.40;90.40
28171;DHT22;15458;53.346;-1.688;2023-04-24T10:17:38;11.30;90.20
28171;DHT22;15458;53.346;-1.688;2023-04-24T10:20:05;11.20;90.30
28171;DHT22;15458;53.346;-1.688;2023-04-24T10:22:32;11.30;90.20
28171;DHT22;15458;53.346;-1.688;2023-04-24T10:24:59;11.50;90.10
28171;DHT22;15458;53.346;-1.688;2023-04-24T10:27:26;11.60;89.90
28171;DHT22;15458;53.346;-1.688;2023-04-24T10:29:53;11.70;89.40
28171;DHT22;15458;53.346;-1.688;2023-04-24T10:32:19;11.70;88.80
28171;DHT22;15458;53.346;-1.688;2023-04-24T10:34:45;11.70;88.40
28171;DHT22;15458;53.346;-1.688;2023-04-24T10:37:10;11.70;87.70
28171;DHT22;15458;53.346;-1.688;2023-04-24T10:39:36;11.70;87.50
28171;DHT22;15458;53.346;-1.688;2023-04-24T10:42:16;11.80;86.70
28171;DHT22;15458;53.346;-1.688;2023-04-24T10:44:42;12.00;85.30
28171;DHT22;15458;53.346;-1.688;2023-04-24T10:47:13;12.20;83.40
28171;DHT22;15458;53.346;-1.688;2023-04-24T10:49:39;12.30;82.10
28171;DHT22;15458;53.346;-1.688;2023-04-24T10:52:05;12.40;80.50
28171;DHT22;15458;53.346;-1.688;2023-04-24T10:54:41;12.30;79.50
28171;DHT22;15458;53.346;-1.688;2023-04-24T10:57:34;12.20;79.50
28171;DHT22;15458;53.346;-1.688;2023-04-24T11:00:20;12.10;78.90
28171;DHT22;15458;53.346;-1.688;2023-04-24T11:02:47;12.00;79.10
28171;DHT22;15458;53.346;-1.688;2023-04-24T11:05:19;12.10;79.30
28171;DHT22;15458;53.346;-1.688;2023-04-24T11:08:11;12.10;78.50
28171;DHT22;15458;53.346;-1.688;2023-04-24T11:10:55;12.40;78.00
28171;DHT22;15458;53.346;-1.688;2023-04-24T11:13:22;12.60;77.60
28171;DHT22;15458;53.346;-1.688;2023-04-24T11:16:14;12.90;76.80
28171;DHT22;15458;53.346;-1.688;2023-04-24T11:18:42;13.10;76.10
28171;DHT22;15458;53.346;-1.688;2023-04-24T11:21:17;13.10;75.40
28171;DHT22;15458;53.346;-1.688;2023-04-24T11:23:43;13.20;75.50
28171;DHT22;15458;53.346;-1.688;2023-04-24T11:26:11;13.20;76.00
28171;DHT22;15458;53.346;-1.688;2023-04-24T11:28:47;13.30;75.60
28171;DHT22;15458;53.346;-1.688;2023-04-24T11:31:36;13.30;74.80
28171;DHT22;15458;53.346;-1.688;2023-04-24T11:34:09;13.20;74.20
28171;DHT22;15458;53.346;-1.688;2023-04-24T11:36:36;13.20;74.20
28171;DHT22;15458;53.346;-1.688;2023-04-24T11:39:02;13.10;73.60
28171;DHT22;15458;53.346;-1.688;2023-04-24T11:41:28;13.10;72.90
28171;DHT22;15458;53.346;-1.688;2023-04-24T11:43:54;13.00;72.00
28171;DHT22;15458;53.346;-1.688;2023-04-24T11:46:21;13.00;71.50
28171;DHT22;15458;53.346;-1.688;2023-04-24T11:48:47;13.10;71.70
28171;DHT22;15458;53.346;-1.688;2023-04-24T11:51:13;13.20;72.00
28171;DHT22;15458;53.346;-1.688;2023-04-24T11:53:39;13.20;71.70
28171;DHT22;15458;53.346;-1.688;2023-04-24T11:56:05;13.10;71.90
28171;DHT22;15458;53.346;-1.688;2023-04-24T11:58:35;12.90;72.20
28171;DHT22;15458;53.346;-1.688;2023-04-24T12:01:01;12.70;73.30
28171;DHT22;15458;53.346;-1.688;2023-04-24T12:03:27;12.60;73.80
28171;DHT22;15458;53.346;-1.688;2023-04-24T12:05:53;12.50;74.10
28171;DHT22;15458;53.346;-1.688;2023-04-24T12:08:31;12.40;74.50
28171;DHT22;15458;53.346;-1.688;2023-04-24T12:10:57;12.30;74.70
28171;DHT22;15458;53.346;-1.688;2023-04-24T12:13:25;12.20;75.10
28171;DHT22;15458;53.346;-1.688;2023-04-24T12:15:51;12.20;75.60
28171;DHT22;15458;53.346;-1.688;2023-04-24T12:18:17;12.10;76.00
28171;DHT22;15458;53.346;-1.688;2023-04-24T12:20:42;12.10;76.00
28171;DHT22;15458;53.346;-1.688;2023-04-24T12:23:08;12.10;76.00
28171;DHT22;15458;53.346;-1.688;2023-04-24T12:25:34;12.00;75.90
28171;DHT22;15458;53.346;-1.688;2023-04-24T12:30:34;11.90;75.70
28171;DHT22;15458;53.346;-1.688;2023-04-24T12:33:02;11.80;75.60
28171;DHT22;15458;53.346;-1.688;2023-04-24T12:35:30;11.80;75.70
28171;DHT22;15458;53.346;-1.688;2023-04-24T12:38:06;11.80;76.00
28171;DHT22;15458;53.346;-1.688;2023-04-24T12:40:31;11.80;75.80
28171;DHT22;15458;53.346;-1.688;2023-04-24T12:42:57;11.80;75.60
28171;DHT22;15458;53.346;-1.688;2023-04-24T12:45:23;11.80;75.90
28171;DHT22;15458;53.346;-1.688;2023-04-24T12:47:50;11.80;76.40
28171;DHT22;15458;53.346;-1.688;2023-04-24T12:50:16;11.80;76.40
28171;DHT22;15458;53.346;-1.688;2023-04-24T12:52:42;11.70;75.80
28171;DHT22;15458;53.346;-1.688;2023-04-24T12:55:09;11.60;75.20
28171;DHT22;15458;53.346;-1.688;2023-04-24T12:57:36;11.60;74.90
28171;DHT22;15458;53.346;-1.688;2023-04-24T13:00:03;11.50;74.60
28171;DHT22;15458;53.346;-1.688;2023-04-24T13:02:30;11.50;74.30
28171;DHT22;15458;53.346;-1.688;2023-04-24T13:04:57;11.40;74.10
28171;DHT22;15458;53.346;-1.688;2023-04-24T13:07:23;11.30;74.00
28171;DHT22;15458;53.346;-1.688;2023-04-24T13:09:50;11.30;74.10
28171;DHT22;15458;53.346;-1.688;2023-04-24T13:12:16;11.30;74.00
28171;DHT22;15458;53.346;-1.688;2023-04-24T13:14:42;11.30;74.00
28171;DHT22;15458;53.346;-1.688;2023-04-24T13:17:08;11.30;74.00
28171;DHT22;15458;53.346;-1.688;2023-04-24T13:19:39;11.30;74.10
28171;DHT22;15458;53.346;-1.688;2023-04-24T13:22:05;11.30;73.70
28171;DHT22;15458;53.346;-1.688;2023-04-24T13:24:32;11.20;73.40
28171;DHT22;15458;53.346;-1.688;2023-04-24T13:26:58;11.30;73.50
28171;DHT22;15458;53.346;-1.688;2023-04-24T13:29:25;11.30;73.50
28171;DHT22;15458;53.346;-1.688;2023-04-24T13:31:51;11.30;73.70
28171;DHT22;15458;53.346;-1.688;2023-04-24T13:34:19;11.40;73.70
28171;DHT22;15458;53.346;-1.688;2023-04-24T13:36:45;11.50;73.50
28171;DHT22;15458;53.346;-1.688;2023-04-24T13:39:11;11.50;74.00
28171;DHT22;15458;53.346;-1.688;2023-04-24T13:41:37;11.60;73.70
28171;DHT22;15458;53.346;-1.688;2023-04-24T13:44:03;11.70;73.10
28171;DHT22;15458;53.346;-1.688;2023-04-24T13:46:30;11.80;73.00
28171;DHT22;15458;53.346;-1.688;2023-04-24T13:48:56;11.90;73.10
28171;DHT22;15458;53.346;-1.688;2023-04-24T13:51:22;12.00;73.00
28171;DHT22;15458;53.346;-1.688;2023-04-24T13:53:48;12.00;73.20
28171;DHT22;15458;53.346;-1.688;2023-04-24T13:56:14;11.70;74.10
28171;DHT22;15458;53.346;-1.688;2023-04-24T13:58:40;11.50;75.20
28171;DHT22;15458;53.346;-1.688;2023-04-24T14:01:06;11.30;76.30
28171;DHT22;15458;53.346;-1.688;2023-04-24T14:03:35;11.00;76.90
28171;DHT22;15458;53.346;-1.688;2023-04-24T14:06:02;10.80;77.30
28171;DHT22;15458;53.346;-1.688;2023-04-24T14:08:28;10.60;77.70
28171;DHT22;15458;53.346;-1.688;2023-04-24T14:10:53;10.50;78.10
28171;DHT22;15458;53.346;-1.688;2023-04-24T14:13:20;10.40;78.40
28171;DHT22;15458;53.346;-1.688;2023-04-24T14:15:46;10.30;78.30
28171;DHT22;15458;53.346;-1.688;2023-04-24T14:18:12;10.30;78.60
28171;DHT22;15458;53.346;-1.688;2023-04-24T14:20:38;10.20;78.80
28171;DHT22;15458;53.346;-1.688;2023-04-24T14:23:04;10.10;78.90
28171;DHT22;15458;53.346;-1.688;2023-04-24T14:25:30;10.10;79.40
28171;DHT22;15458;53.346;-1.688;2023-04-24T14:27:56;10.00;79.50
28171;DHT22;15458;53.346;-1.688;2023-04-24T14:30:22;9.90;79.70
28171;DHT22;15458;53.346;-1.688;2023-04-24T14:32:48;9.90;80.00
28171;DHT22;15458;53.346;-1.688;2023-04-24T14:35:14;9.90;80.30
28171;DHT22;15458;53.346;-1.688;2023-04-24T14:37:40;9.80;80.70
28171;DHT22;15458;53.346;-1.688;2023-04-24T14:40:09;9.90;81.20
28171;DHT22;15458;53.346;-1.688;2023-04-24T14:42:35;9.80;81.50
28171;DHT22;15458;53.346;-1.688;2023-04-24T14:45:01;9.80;82.00
28171;DHT22;15458;53.346;-1.688;2023-04-24T14:47:27;9.80;82.40
28171;DHT22;15458;53.346;-1.688;2023-04-24T14:49:53;9.80;82.80
28171;DHT22;15458;53.346;-1.688;2023-04-24T14:52:18;9.80;83.10
28171;DHT22;15458;53.346;-1.688;2023-04-24T14:54:44;9.80;83.50
28171;DHT22;15458;53.346;-1.688;2023-04-24T14:57:10;9.80;83.80
28171;DHT22;15458;53.346;-1.688;2023-04-24T14:59:36;9.70;83.70
28171;DHT22;15458;53.346;-1.688;2023-04-24T15:02:02;9.70;83.70
28171;DHT22;15458;53.346;-1.688;2023-04-24T15:04:28;9.70;83.90
28171;DHT22;15458;53.346;-1.688;2023-04-24T15:06:55;9.70;83.90
28171;DHT22;15458;53.346;-1.688;2023-04-24T15:09:24;9.70;83.80
28171;DHT22;15458;53.346;-1.688;2023-04-24T15:11:51;9.70;84.00
28171;DHT22;15458;53.346;-1.688;2023-04-24T15:14:17;9.70;84.00
28171;DHT22;15458;53.346;-1.688;2023-04-24T15:16:43;9.80;83.90
28171;DHT22;15458;53.346;-1.688;2023-04-24T15:19:10;9.80;83.80
28171;DHT22;15458;53.346;-1.688;2023-04-24T15:21:37;9.80;83.70
28171;DHT22;15458;53.346;-1.688;2023-04-24T15:24:04;9.70;83.60
28171;DHT22;15458;53.346;-1.688;2023-04-24T15:26:30;9.80;83.60
28171;DHT22;15458;53.346;-1.688;2023-04-24T15:28:56;9.80;83.50
28171;DHT22;15458;53.346;-1.688;2023-04-24T15:31:21;9.80;83.60
28171;DHT22;15458;53.346;-1.688;2023-04-24T15:33:48;9.80;83.80
28171;DHT22;15458;53.346;-1.688;2023-04-24T15:36:15;9.80;84.00
28171;DHT22;15458;53.346;-1.688;2023-04-24T15:38:42;9.80;83.90
28171;DHT22;15458;53.346;-1.688;2023-04-24T15:41:08;9.80;84.10
28171;DHT22;15458;53.346;-1.688;2023-04-24T15:43:33;9.70;84.80
28171;DHT22;15458;53.346;-1.688;2023-04-24T15:46:00;9.70;85.80
28171;DHT22;15458;53.346;-1.688;2023-04-24T15:48:27;9.70;86.40
28171;DHT22;15458;53.346;-1.688;2023-04-24T15:50:53;9.70;86.80
28171;DHT22;15458;53.346;-1.688;2023-04-24T15:53:20;9.70;86.90